createdAt,value
2023-02-27T00:00:01.480Z,94144.41
2023-02-27T00:03:04.620Z,94133.22
2023-02-27T00:06:09.325Z,94153.50
2023-02-27T00:09:12.436Z,94141.06
2023-02-27T00:12:15.626Z,94152.41
2023-02-27T00:15:20.619Z,94158.50
2023-02-27T00:18:23.927Z,94156.94
2023-02-27T00:21:28.567Z,94155.06
2023-02-27T00:24:31.784Z,94141.97
2023-02-27T00:27:35.333Z,94144.41
2023-02-27T00:30:38.497Z,94155.84
2023-02-27T00:33:41.647Z,94145.97
2023-02-27T00:36:46.150Z,94160.41
2023-02-27T00:39:50.391Z,94155.06
2023-02-27T00:42:53.533Z,94170.28
2023-02-27T00:45:56.683Z,94153.97
2023-02-27T00:48:59.753Z,94151.28
2023-02-27T00:52:04.230Z,94151.28
2023-02-27T00:55:08.543Z,94150.19
2023-02-27T00:58:11.691Z,94153.50
2023-02-27T01:01:15.559Z,94164.28
2023-02-27T01:04:18.711Z,94174.94
2023-02-27T01:07:23.199Z,94166.50
2023-02-27T01:10:26.420Z,94160.41
2023-02-27T01:13:29.483Z,94163.84
2023-02-27T01:16:32.946Z,94131.09
2023-02-27T01:19:36.038Z,94155.84
2023-02-27T01:22:40.680Z,94152.41
2023-02-27T01:25:43.770Z,94153.50
2023-02-27T01:28:46.946Z,94164.16
2023-02-27T01:31:50.224Z,94161.50
2023-02-27T01:34:53.420Z,94161.50
2023-02-27T01:37:57.888Z,94167.81
2023-02-27T01:41:01.034Z,94178.59
2023-02-27T01:44:06.451Z,94183.91
2023-02-27T01:47:09.636Z,94206.00
2023-02-27T01:50:14.812Z,94168.25
2023-02-27T01:53:21.106Z,94221.22
2023-02-27T01:56:28.291Z,94222.00
2023-02-27T01:59:31.525Z,94202.78
2023-02-27T02:02:39.188Z,94210.56
2023-02-27T02:05:44.049Z,94207.13
2023-02-27T02:08:51.335Z,94215.88
2023-02-27T02:11:55.698Z,94231.88
2023-02-27T02:14:58.809Z,94249.41
2023-02-27T02:18:12.800Z,94242.06
2023-02-27T02:21:44.617Z,94242.53
2023-02-27T02:25:20.115Z,94313.59
2023-02-27T02:28:56.495Z,94404.69
2023-02-27T02:32:32.038Z,94409.59
2023-02-27T02:35:59.906Z,94429.78
2023-02-27T02:39:35.974Z,94426.31
2023-02-27T02:42:46.392Z,94434.63
2023-02-27T02:45:55.288Z,94422.13
2023-02-27T02:49:04.245Z,94436.53
2023-02-27T02:52:15.731Z,94460.81
2023-02-27T02:55:25.985Z,94477.59
2023-02-27T02:58:34.227Z,94462.38
2023-02-27T03:01:42.068Z,94470.56
2023-02-27T03:04:50.807Z,94495.13
2023-02-27T03:07:58.311Z,94485.88
2023-02-27T03:11:04.766Z,94495.75
2023-02-27T03:14:12.460Z,94485.13
2023-02-27T03:17:20.583Z,94470.22
2023-02-27T03:20:26.769Z,94440.94
2023-02-27T03:23:36.090Z,94424.94
2023-02-27T03:26:45.378Z,94476.66
2023-02-27T03:29:54.780Z,94515.50
2023-02-27T03:33:03.759Z,94518.19
2023-02-27T03:36:12.398Z,94550.91
2023-02-27T03:39:26.275Z,94563.47
2023-02-27T03:42:39.571Z,94577.56
2023-02-27T03:45:54.002Z,94477.50
2023-02-27T03:48:57.106Z,94558.44
2023-02-27T03:52:00.310Z,94558.75
2023-02-27T03:55:09.557Z,94568.31
2023-02-27T03:58:14.274Z,94548.22
2023-02-27T04:01:19.320Z,94572.56
2023-02-27T04:04:22.712Z,94592.28
2023-02-27T04:07:34.766Z,94609.06
2023-02-27T04:10:51.595Z,94563.13
2023-02-27T04:14:12.495Z,94613.59
2023-02-27T04:17:25.262Z,94608.88
2023-02-27T04:20:40.568Z,94628.16
2023-02-27T04:23:51.170Z,94607.97
2023-02-27T04:26:59.305Z,94618.28
2023-02-27T04:30:15.184Z,94633.19
2023-02-27T04:33:29.720Z,94627.38
2023-02-27T04:36:40.991Z,94636.44
2023-02-27T04:39:51.716Z,94667.34
2023-02-27T04:42:57.868Z,94670.47
2023-02-27T04:46:06.515Z,94659.47
2023-02-27T04:49:15.770Z,94714.19
2023-02-27T04:52:24.193Z,94638.25
2023-02-27T04:55:31.794Z,94725.72
2023-02-27T04:58:37.933Z,94726.50
2023-02-27T05:01:46.538Z,94682.63
2023-02-27T05:04:51.313Z,94728.13
2023-02-27T05:07:58.629Z,94726.72
2023-02-27T05:11:09.240Z,94733.31
2023-02-27T05:14:17.401Z,94766.25
2023-02-27T05:17:27.165Z,94765.16
2023-02-27T05:20:36.528Z,94775.97
2023-02-27T05:23:46.369Z,94778.47
2023-02-27T05:27:06.406Z,94790.72
2023-02-27T05:30:18.976Z,94767.97
2023-02-27T05:33:29.345Z,94795.56
2023-02-27T05:36:35.899Z,94768.63
2023-02-27T05:39:43.018Z,94797.13
2023-02-27T05:42:50.899Z,94703.38
2023-02-27T05:45:59.423Z,94798.72
2023-02-27T05:49:09.311Z,94779.25
2023-02-27T05:52:17.571Z,94795.41
2023-02-27T05:55:25.617Z,94795.41
2023-02-27T05:58:31.565Z,94802.00
2023-02-27T06:01:35.145Z,94780.97
2023-02-27T06:04:39.936Z,94792.47
2023-02-27T06:07:43.201Z,94833.06
2023-02-27T06:10:46.466Z,94829.56
2023-02-27T06:13:49.542Z,94810.75
2023-02-27T06:16:52.667Z,94835.38
2023-02-27T06:19:57.215Z,94817.03
2023-02-27T06:23:00.361Z,94839.13
2023-02-27T06:26:03.454Z,94820.94
2023-02-27T06:29:06.703Z,94836.63
2023-02-27T06:32:09.829Z,94843.53
2023-02-27T06:35:14.619Z,94842.09
2023-02-27T06:38:18.785Z,94844.94
2023-02-27T06:41:22.805Z,94853.38
2023-02-27T06:44:26.015Z,94825.59
2023-02-27T06:47:29.115Z,94850.72
2023-02-27T06:50:33.689Z,94847.44
2023-02-27T06:53:36.913Z,94855.44
2023-02-27T06:56:40.130Z,94845.88
2023-02-27T06:59:45.247Z,94850.41
2023-02-27T07:02:48.530Z,94844.63
2023-02-27T07:05:53.145Z,94837.91
2023-02-27T07:09:02.309Z,94834.78
2023-02-27T07:12:10.330Z,94846.84
2023-02-27T07:15:13.718Z,94847.94
2023-02-27T07:18:16.869Z,94848.59
2023-02-27T07:21:21.369Z,94862.88
2023-02-27T07:24:24.496Z,94869.94
2023-02-27T07:27:27.759Z,94872.94
2023-02-27T07:30:31.724Z,94867.63
2023-02-27T07:33:34.870Z,94875.94
2023-02-27T07:36:39.460Z,94881.13
2023-02-27T07:39:42.712Z,94865.72
2023-02-27T07:42:48.097Z,94865.13
2023-02-27T07:45:51.950Z,94877.47
2023-02-27T07:48:55.132Z,94877.00
2023-02-27T07:51:59.674Z,94881.72
2023-02-27T07:55:02.739Z,94884.22
2023-02-27T07:58:05.868Z,94882.47
2023-02-27T08:01:09.242Z,94888.28
2023-02-27T08:04:12.415Z,94887.19
2023-02-27T08:07:16.902Z,94873.34
2023-02-27T08:10:20.232Z,94901.47
2023-02-27T08:13:42.307Z,94905.56
2023-02-27T08:16:46.512Z,94905.91
2023-02-27T08:19:49.595Z,94874.00
2023-02-27T08:22:54.047Z,94903.72
2023-02-27T08:25:58.368Z,94888.50
2023-02-27T08:29:01.820Z,94895.56
2023-02-27T08:32:05.820Z,94873.59
2023-02-27T08:35:09.560Z,94902.63
2023-02-27T08:38:16.766Z,94909.69
2023-02-27T08:41:24.184Z,94882.06
2023-02-27T08:44:27.295Z,94910.00
2023-02-27T08:47:30.470Z,94900.13
2023-02-27T08:50:33.756Z,94909.53
2023-02-27T08:53:38.355Z,94903.72
2023-02-27T08:56:41.639Z,94912.97
2023-02-27T08:59:44.793Z,94918.47
2023-02-27T09:02:48.006Z,94928.22
2023-02-27T09:05:51.667Z,94931.34
2023-02-27T09:08:56.268Z,94932.47
2023-02-27T09:11:59.332Z,94943.47
2023-02-27T09:15:02.425Z,94929.66
2023-02-27T09:18:07.082Z,94926.16
2023-02-27T09:21:10.264Z,94932.94
2023-02-27T09:24:20.138Z,94944.53
2023-02-27T09:27:24.547Z,94937.16
2023-02-27T09:30:27.673Z,94931.69
2023-02-27T09:33:31.496Z,94939.06
2023-02-27T09:36:35.032Z,94923.81
2023-02-27T09:39:39.503Z,94940.13
2023-02-27T09:42:46.637Z,94936.34
2023-02-27T09:45:54.871Z,94932.59
2023-02-27T09:49:00.349Z,94947.03
2023-02-27T09:52:03.988Z,94939.34
2023-02-27T09:55:16.622Z,94962.44
2023-02-27T09:58:35.688Z,94960.09
2023-02-27T10:01:45.416Z,94962.72
2023-02-27T10:04:57.086Z,94971.19
2023-02-27T10:08:11.287Z,94965.56
2023-02-27T10:11:21.154Z,94971.34
2023-02-27T10:14:33.152Z,94963.81
2023-02-27T10:17:41.570Z,94965.72
2023-02-27T10:20:51.768Z,94969.16
2023-02-27T10:23:59.106Z,94979.53
2023-02-27T10:27:07.299Z,94975.75
2023-02-27T10:30:29.187Z,94974.66
2023-02-27T10:33:37.058Z,94959.13
2023-02-27T10:36:41.215Z,94967.59
2023-02-27T10:39:48.894Z,94963.81
2023-02-27T10:42:55.935Z,94950.78
2023-02-27T10:46:03.087Z,94950.19
2023-02-27T10:49:16.918Z,94951.75
2023-02-27T10:52:21.631Z,94956.31
2023-02-27T10:55:28.108Z,94965.88
2023-02-27T10:58:35.930Z,94954.88
2023-02-27T11:01:47.865Z,94955.66
2023-02-27T11:04:54.696Z,94954.09
2023-02-27T11:08:11.845Z,94955.03
2023-02-27T11:11:14.966Z,94943.75
2023-02-27T11:14:28.916Z,94939.81
2023-02-27T11:17:34.278Z,94904.03
2023-02-27T11:20:40.642Z,94930.25
2023-02-27T11:24:00.005Z,94926.63
2023-02-27T11:27:06.039Z,94932.44
2023-02-27T11:30:23.136Z,94920.19
2023-02-27T11:33:27.834Z,94903.06
2023-02-27T11:36:41.840Z,94916.44
2023-02-27T11:39:51.678Z,94895.56
2023-02-27T11:42:58.647Z,94915.97
2023-02-27T11:46:33.159Z,94915.50
2023-02-27T11:49:36.033Z,94925.66
2023-02-27T11:52:45.984Z,94924.88
2023-02-27T11:55:51.295Z,94928.66
2023-02-27T11:59:02.870Z,94920.50
2023-02-27T12:02:16.553Z,94921.28
2023-02-27T12:05:25.573Z,94921.59
2023-02-27T12:08:33.630Z,94913.72
2023-02-27T12:11:42.554Z,94915.78
2023-02-27T12:14:51.569Z,94888.44
2023-02-27T12:18:04.065Z,94833.03
2023-02-27T12:21:11.825Z,94910.44
2023-02-27T12:24:22.564Z,94898.47
2023-02-27T12:27:30.700Z,94917.47
2023-02-27T12:30:40.550Z,94906.81
2023-02-27T12:33:51.057Z,94907.59
2023-02-27T12:36:54.970Z,94905.25
2023-02-27T12:40:02.058Z,94905.25
2023-02-27T12:43:20.609Z,94898.94
2023-02-27T12:46:31.921Z,94902.91
2023-02-27T12:49:43.139Z,94907.72
2023-02-27T12:53:02.805Z,94906.63
2023-02-27T12:56:14.264Z,94885.59
2023-02-27T12:59:44.071Z,94901.13
2023-02-27T13:03:06.417Z,94894.88
2023-02-27T13:06:17.896Z,94896.16
2023-02-27T13:09:30.544Z,94910.94
2023-02-27T13:12:40.482Z,94904.03
2023-02-27T13:15:49.252Z,94913.44
2023-02-27T13:18:57.787Z,94915.31
2023-02-27T13:22:11.939Z,94912.34
2023-02-27T13:25:17.035Z,94903.22
2023-02-27T13:28:23.685Z,94915.50
2023-02-27T13:31:39.036Z,94897.13
2023-02-27T13:34:45.795Z,94895.38
2023-02-27T13:37:56.081Z,94895.97
2023-02-27T13:40:59.846Z,94898.16
2023-02-27T13:44:50.425Z,94885.47
2023-02-27T13:47:55.010Z,94876.34
2023-02-27T13:50:59.791Z,94900.97
2023-02-27T13:54:22.932Z,94898.78
2023-02-27T13:57:27.765Z,94914.94
2023-02-27T14:00:32.737Z,94919.81
2023-02-27T14:03:35.942Z,94924.34
2023-02-27T14:06:45.517Z,94899.22
2023-02-27T14:09:53.035Z,94914.78
2023-02-27T14:12:57.612Z,94918.81
2023-02-27T14:16:01.118Z,94929.81
2023-02-27T14:19:25.359Z,94927.91
2023-02-27T14:22:41.075Z,94921.81
2023-02-27T14:25:49.153Z,94928.38
2023-02-27T14:28:55.954Z,94942.34
2023-02-27T14:32:01.672Z,94935.75
2023-02-27T14:35:07.370Z,94952.84
2023-02-27T14:38:12.926Z,94957.09
2023-02-27T14:41:44.257Z,94952.84
2023-02-27T14:44:50.777Z,94939.50
2023-02-27T14:47:54.452Z,94936.50
2023-02-27T14:51:00.010Z,94952.63
2023-02-27T14:54:14.028Z,94963.13
2023-02-27T14:57:20.930Z,94983.41
2023-02-27T15:00:33.066Z,94998.78
2023-02-27T15:03:42.114Z,95007.41
2023-02-27T15:06:47.907Z,95019.63
2023-02-27T15:09:53.347Z,95023.41
2023-02-27T15:12:58.946Z,95028.72
2023-02-27T15:16:38.625Z,95021.81
2023-02-27T15:19:48.058Z,95046.91
2023-02-27T15:22:51.398Z,95066.34
2023-02-27T15:25:57.558Z,95078.91
2023-02-27T15:29:02.143Z,95076.22
2023-02-27T15:32:06.858Z,95076.22
2023-02-27T15:35:17.719Z,95086.41
2023-02-27T15:38:31.816Z,95081.88
2023-02-27T15:41:37.524Z,95077.44
2023-02-27T15:44:44.638Z,95094.41
2023-02-27T15:47:48.735Z,95106.13
2023-02-27T15:50:55.702Z,95104.28
2023-02-27T15:54:01.444Z,95104.28
2023-02-27T15:57:07.637Z,95124.31
2023-02-27T16:00:17.998Z,95109.06
2023-02-27T16:03:25.389Z,95119.47
2023-02-27T16:06:31.246Z,95103.09
2023-02-27T16:09:37.002Z,95120.69
2023-02-27T16:12:40.270Z,95131.81
2023-02-27T16:15:45.089Z,95119.06
2023-02-27T16:18:51.344Z,95129.47
2023-02-27T16:22:06.798Z,95133.84
2023-02-27T16:25:12.042Z,95144.06
2023-02-27T16:28:16.242Z,95109.59
2023-02-27T16:31:26.908Z,95148.59
2023-02-27T16:34:44.653Z,95129.41
2023-02-27T16:37:49.413Z,95146.84
2023-02-27T16:40:52.713Z,95155.19
2023-02-27T16:43:56.142Z,95153.88
2023-02-27T16:47:02.272Z,95142.84
2023-02-27T16:50:06.092Z,95162.66
2023-02-27T16:53:12.474Z,95156.78
2023-02-27T16:56:17.079Z,95149.09
2023-02-27T16:59:30.261Z,95133.53
2023-02-27T17:02:35.113Z,95167.38
2023-02-27T17:05:38.376Z,95172.25
2023-02-27T17:08:42.927Z,95218.00
2023-02-27T17:11:46.135Z,95224.25
2023-02-27T17:14:49.423Z,95224.25
2023-02-27T17:17:54.470Z,95228.88
2023-02-27T17:21:00.813Z,95173.00
2023-02-27T17:24:04.404Z,95183.69
2023-02-27T17:27:07.676Z,95201.91
2023-02-27T17:30:12.373Z,95210.81
2023-02-27T17:33:17.239Z,95214.34
2023-02-27T17:36:21.434Z,95192.94
2023-02-27T17:39:25.046Z,95207.16
2023-02-27T17:42:28.266Z,95191.19
2023-02-27T17:45:31.405Z,95185.31
2023-02-27T17:48:36.721Z,95186.72
2023-02-27T17:51:39.903Z,95210.91
2023-02-27T17:54:43.075Z,95211.56
2023-02-27T17:57:46.240Z,95216.09
2023-02-27T18:00:49.417Z,95230.53
2023-02-27T18:03:54.929Z,95232.75
2023-02-27T18:06:58.087Z,95230.28
2023-02-27T18:10:01.311Z,95227.72
2023-02-27T18:13:05.526Z,95226.34
2023-02-27T18:16:09.172Z,95227.31
2023-02-27T18:19:14.000Z,95230.56
2023-02-27T18:22:17.193Z,95228.03
2023-02-27T18:25:20.376Z,95203.72
2023-02-27T18:28:23.644Z,95228.66
2023-02-27T18:31:28.809Z,95232.88
2023-02-27T18:34:33.527Z,95227.84
2023-02-27T18:37:36.668Z,95225.81
2023-02-27T18:40:39.917Z,95229.34
2023-02-27T18:43:43.844Z,95205.13
2023-02-27T18:46:47.001Z,95237.97
2023-02-27T18:49:52.182Z,95251.38
2023-02-27T18:52:56.193Z,95236.81
2023-02-27T18:56:02.439Z,95248.19
2023-02-27T18:59:06.962Z,95245.22
2023-02-27T19:02:15.810Z,95233.03
2023-02-27T19:05:20.664Z,95226.59
2023-02-27T19:08:29.036Z,95231.34
2023-02-27T19:11:34.623Z,95234.75
2023-02-27T19:14:37.884Z,95260.09
2023-02-27T19:17:41.044Z,95263.34
2023-02-27T19:20:46.010Z,95268.69
2023-02-27T19:23:49.112Z,95276.09
2023-02-27T19:26:55.644Z,95264.94
2023-02-27T19:30:02.630Z,95269.91
2023-02-27T19:33:05.817Z,95275.84
2023-02-27T19:36:12.643Z,95281.19
2023-02-27T19:39:16.053Z,95293.44
2023-02-27T19:42:19.539Z,95302.00
2023-02-27T19:45:23.281Z,95290.38
2023-02-27T19:48:26.439Z,95289.75
2023-02-27T19:51:31.401Z,95297.59
2023-02-27T19:54:34.547Z,95307.44
2023-02-27T19:57:38.638Z,95306.38
2023-02-27T20:00:41.959Z,95278.09
2023-02-27T20:03:45.311Z,95326.41
2023-02-27T20:06:53.026Z,95330.16
2023-02-27T20:09:56.276Z,95327.50
2023-02-27T20:13:00.024Z,95340.03
2023-02-27T20:16:05.222Z,95347.56
2023-02-27T20:19:11.770Z,95349.13
2023-02-27T20:22:17.268Z,95327.56
2023-02-27T20:25:20.454Z,95334.53
2023-02-27T20:28:24.297Z,95326.03
2023-02-27T20:31:30.924Z,95337.50
2023-02-27T20:34:34.458Z,95360.41
2023-02-27T20:37:40.093Z,95357.13
2023-02-27T20:40:43.427Z,95354.47
2023-02-27T20:43:46.791Z,95352.41
2023-02-27T20:46:50.004Z,95352.22
2023-02-27T20:49:53.425Z,95348.38
2023-02-27T20:52:58.165Z,95336.44
2023-02-27T20:56:01.382Z,95349.28
2023-02-27T20:59:06.059Z,95364.78
2023-02-27T21:02:11.004Z,95363.50
2023-02-27T21:05:14.390Z,95347.41
2023-02-27T21:08:19.774Z,95353.75
2023-02-27T21:11:25.677Z,95331.97
2023-02-27T21:14:29.038Z,95385.75
2023-02-27T21:17:32.201Z,95386.81
2023-02-27T21:20:35.344Z,95380.91
2023-02-27T21:23:42.227Z,95397.75
2023-02-27T21:26:46.036Z,95405.75
2023-02-27T21:29:50.000Z,95417.13
2023-02-27T21:32:53.272Z,95437.25
2023-02-27T21:35:57.836Z,95447.41
2023-02-27T21:39:05.596Z,95462.63
2023-02-27T21:42:08.694Z,95451.97
2023-02-27T21:45:12.549Z,95448.50
2023-02-27T21:48:16.250Z,95449.59
2023-02-27T21:51:33.092Z,95464.31
2023-02-27T21:58:04.289Z,95443.38
2023-02-27T22:01:15.549Z,95457.19
2023-02-27T22:04:20.606Z,95461.94
2023-02-27T22:07:23.719Z,95460.34
2023-02-27T22:10:28.598Z,95460.16
2023-02-27T22:13:32.208Z,95411.53
2023-02-27T22:16:36.009Z,95447.09
2023-02-27T22:19:39.206Z,95459.56
2023-02-27T22:22:42.303Z,95464.91
2023-02-27T22:25:47.230Z,95454.03
2023-02-27T22:28:50.498Z,95409.81
2023-02-27T22:31:53.806Z,95449.50
2023-02-27T22:34:59.701Z,95486.81
2023-02-27T22:38:02.947Z,95483.06
2023-02-27T22:41:13.004Z,95483.94
2023-02-27T22:44:17.613Z,95483.38
2023-02-27T22:47:20.856Z,95465.50
2023-02-27T22:50:24.036Z,95477.50
2023-02-27T22:53:27.248Z,95470.31
2023-02-27T22:56:32.408Z,95460.72
2023-02-27T22:59:35.510Z,95473.75
2023-02-27T23:02:41.666Z,95476.72
2023-02-27T23:05:48.418Z,95474.06
2023-02-27T23:08:51.688Z,95421.00
2023-02-27T23:11:57.047Z,95476.72
2023-02-27T23:15:00.266Z,95452.78
2023-02-27T23:18:03.500Z,95475.13
2023-02-27T23:21:07.330Z,95475.53
2023-02-27T23:24:12.628Z,95484.22
2023-02-27T23:27:25.863Z,95486.41
2023-02-27T23:30:30.135Z,95464.44
2023-02-27T23:33:34.481Z,95477.13
2023-02-27T23:36:39.646Z,95466.25
2023-02-27T23:39:42.715Z,95482.16
2023-02-27T23:42:47.317Z,95471.50
2023-02-27T23:45:50.825Z,95467.63
2023-02-27T23:48:53.949Z,95477.13
2023-02-27T23:51:57.044Z,95478.00
2023-02-27T23:55:00.234Z,95487.47
2023-02-27T23:58:06.683Z,95476.72
